Time;durP1;ratioP1;P1;durP2;ratioP2;P2;SDS_P1;SDS_P2;PMS_P1;PMS_P2;Temp;Humidity;BMP_temperature;BMP_pressure;BME280_temperature;BME280_humidity;BME280_pressure;Samples;Min_cycle;Max_cycle;Signal;HPM_P1;HPM_P2
2022/07/08 00:02:06;;;;;;;6.13;4.80;;;;;;;19.65;100.00;94456.28;5051164;28;20205;-62
2022/07/08 00:04:32;;;;;;;6.50;4.63;;;;;;;19.72;100.00;94456.31;5052676;28;20197;-62
2022/07/08 00:06:58;;;;;;;4.93;4.43;;;;;;;19.59;100.00;94441.56;5052317;28;20221;-59
2022/07/08 00:09:26;;;;;;;6.78;5.00;;;;;;;19.63;100.00;94442.78;5052480;28;20190;-64
2022/07/08 00:11:52;;;;;;;4.80;4.35;;;;;;;19.52;100.00;94425.25;5052187;28;20209;-64
2022/07/08 00:14:17;;;;;;;4.55;4.15;;;;;;;19.43;100.00;94431.56;5052243;28;20200;-63
2022/07/08 00:16:43;;;;;;;6.05;4.25;;;;;;;19.45;100.00;94423.63;5052079;28;20590;-63
2022/07/08 00:19:15;;;;;;;5.07;4.43;;;;;;;19.54;100.00;94443.91;5052136;28;20335;-62
2022/07/08 00:21:43;;;;;;;5.43;4.22;;;;;;;19.64;100.00;94446.16;5050615;28;20607;-63
2022/07/08 00:24:10;;;;;;;6.78;4.50;;;;;;;19.61;100.00;94423.31;5052107;28;20201;-63
2022/07/08 00:26:36;;;;;;;4.75;4.15;;;;;;;19.70;100.00;94432.47;5051934;28;20214;-63
2022/07/08 00:29:01;;;;;;;5.88;4.47;;;;;;;19.74;100.00;94439.66;5052052;28;20624;-63
2022/07/08 00:31:27;;;;;;;4.78;4.18;;;;;;;19.83;100.00;94446.28;5051904;28;20209;-62
2022/07/08 00:33:52;;;;;;;7.35;4.00;;;;;;;19.87;100.00;94451.84;5052051;28;20189;-63
2022/07/08 00:36:18;;;;;;;7.90;4.57;;;;;;;19.93;100.00;94454.47;5050680;28;20217;-62
2022/07/08 00:38:43;;;;;;;5.18;4.18;;;;;;;19.89;100.00;94448.09;5050495;28;20181;-64
2022/07/08 00:41:09;;;;;;;6.70;3.90;;;;;;;19.90;100.00;94444.50;5050436;28;20276;-62
2022/07/08 00:43:45;;;;;;;4.50;4.10;;;;;;;19.59;100.00;94426.09;5051781;28;20177;-63
2022/07/08 00:46:12;;;;;;;6.30;4.55;;;;;;;19.57;100.00;94433.22;5051755;28;20575;-62
2022/07/08 00:48:38;;;;;;;5.03;4.00;;;;;;;19.48;100.00;94428.38;5051885;28;20208;-62
2022/07/08 00:51:08;;;;;;;3.90;3.58;;;;;;;19.33;100.00;94433.69;5052135;28;20695;-62
2022/07/08 00:53:35;;;;;;;3.40;3.10;;;;;;;19.25;99.99;94446.66;5051582;28;20268;-63
2022/07/08 00:56:03;;;;;;;7.18;3.97;;;;;;;19.22;100.00;94447.03;5051615;28;20276;-63
2022/07/08 00:58:30;;;;;;;4.00;3.60;;;;;;;19.05;100.00;94443.94;5058901;22;20304;-63
2022/07/08 01:00:55;;;;;;;3.83;3.42;;;;;;;19.04;100.00;94439.78;5049748;28;20221;-64
2022/07/08 01:03:21;;;;;;;3.55;3.28;;;;;;;19.02;100.00;94448.66;5050940;28;20224;-64
2022/07/08 01:05:47;;;;;;;5.30;4.43;;;;;;;19.05;99.87;94446.50;5051294;28;20209;-64
2022/07/08 01:08:13;;;;;;;5.15;4.00;;;;;;;18.93;100.00;94421.44;5051696;28;20271;-62
2022/07/08 01:10:39;;;;;;;5.05;3.83;;;;;;;18.78;100.00;94431.03;5051462;28;20569;-62
2022/07/08 01:13:06;;;;;;;4.47;4.15;;;;;;;19.07;100.00;94433.44;5051560;28;20205;-63
2022/07/08 01:15:32;;;;;;;6.05;3.88;;;;;;;19.16;100.00;94429.75;5051596;28;20272;-62
2022/07/08 01:17:57;;;;;;;6.40;3.47;;;;;;;19.18;100.00;94438.09;5033566;28;20564;-64
2022/07/08 01:20:23;;;;;;;3.80;3.50;;;;;;;19.23;100.00;94430.56;5033531;28;20196;-60
2022/07/08 01:22:48;;;;;;;6.68;3.83;;;;;;;19.23;100.00;94433.16;5051368;28;20217;-64
2022/07/08 01:25:14;;;;;;;5.50;3.92;;;;;;;19.19;100.00;94429.34;5051511;28;20213;-63
2022/07/08 01:27:40;;;;;;;4.22;3.45;;;;;;;19.23;100.00;94431.38;5051223;28;20217;-64
2022/07/08 01:30:06;;;;;;;8.93;4.28;;;;;;;19.13;100.00;94424.94;5051315;28;20193;-62
2022/07/08 01:32:33;;;;;;;4.93;3.80;;;;;;;18.81;100.00;94421.13;5051637;28;20591;-63
2022/07/08 01:34:59;;;;;;;5.00;4.20;;;;;;;18.88;100.00;94427.16;5053651;28;20193;-61
2022/07/08 01:37:25;;;;;;;3.58;3.30;;;;;;;18.81;100.00;94420.34;5055636;28;20198;-61
2022/07/08 01:39:50;;;;;;;7.82;3.30;;;;;;;19.03;100.00;94434.78;5055430;28;20243;-63
2022/07/08 01:42:16;;;;;;;7.50;3.92;;;;;;;18.90;100.00;94430.34;5055445;28;20573;-63
2022/07/08 01:44:41;;;;;;;3.90;3.60;;;;;;;18.85;100.00;94445.53;5055010;28;20694;-61
2022/07/08 01:47:07;;;;;;;4.10;3.70;;;;;;;18.73;100.00;94443.63;5054976;28;20263;-62
2022/07/08 01:49:32;;;;;;;4.18;3.50;;;;;;;18.34;100.00;94421.66;5054982;28;20247;-60
2022/07/08 01:51:59;;;;;;;3.80;3.50;;;;;;;18.31;100.00;94418.66;5054848;28;20647;-60
2022/07/08 01:54:24;;;;;;;4.43;3.97;;;;;;;18.40;100.00;94426.06;5054865;28;20288;-63
2022/07/08 01:56:50;;;;;;;3.95;3.55;;;;;;;18.31;100.00;94423.78;5036962;28;20308;-63
2022/07/08 01:59:16;;;;;;;5.03;3.78;;;;;;;18.15;100.00;94429.16;5036940;28;20193;-63
2022/07/08 02:01:42;;;;;;;4.50;4.13;;;;;;;18.04;100.00;94430.41;5054867;28;20687;-62
2022/07/08 02:04:07;;;;;;;4.60;3.50;;;;;;;17.92;100.00;94431.88;5054887;28;20190;-63
2022/07/08 02:06:33;;;;;;;5.03;4.03;;;;;;;17.83;100.00;94437.28;5054507;28;20236;-62
2022/07/08 02:08:58;;;;;;;5.45;4.50;;;;;;;17.69;100.00;94441.47;5036878;28;20193;-61
2022/07/08 02:14:08;;;;;;;5.82;4.82;;;;;;;17.64;100.00;94438.63;5054522;28;20201;-60
2022/07/08 02:16:33;;;;;;;5.10;4.30;;;;;;;17.87;100.00;94446.25;5054630;28;20202;-60
2022/07/08 02:18:59;;;;;;;5.55;5.05;;;;;;;18.00;100.00;94443.81;5054486;28;20712;-63
2022/07/08 02:21:24;;;;;;;5.32;4.85;;;;;;;18.00;100.00;94449.75;5054137;28;20201;-62
2022/07/08 02:23:50;;;;;;;5.03;4.53;;;;;;;17.94;100.00;94453.06;5054353;28;20702;-63
2022/07/08 02:26:16;;;;;;;5.03;4.53;;;;;;;18.01;100.00;94445.44;5054246;28;20220;-62
2022/07/08 02:28:41;;;;;;;6.95;4.93;;;;;;;18.09;100.00;94450.47;5054771;28;20181;-62
2022/07/08 02:31:07;;;;;;;4.82;3.85;;;;;;;18.14;100.00;94455.88;5036099;28;20280;-64
2022/07/08 02:33:32;;;;;;;6.78;5.68;;;;;;;18.03;100.00;94457.13;5036288;28;20311;-60
2022/07/08 02:35:58;;;;;;;5.63;4.80;;;;;;;18.02;100.00;94460.69;5036338;28;20280;-63
2022/07/08 02:38:25;;;;;;;7.07;5.15;;;;;;;18.01;100.00;94453.94;5036342;28;20181;-60
2022/07/08 02:40:50;;;;;;;6.25;5.00;;;;;;;18.00;100.00;94457.50;5053870;28;20674;-61
2022/07/08 02:43:16;;;;;;;8.13;5.07;;;;;;;17.95;100.00;94464.97;5036191;28;20205;-63
2022/07/08 02:45:41;;;;;;;5.05;4.20;;;;;;;17.89;100.00;94470.81;5052744;28;20209;-63
2022/07/08 02:48:07;;;;;;;6.95;5.03;;;;;;;17.77;100.00;94463.72;5035992;28;20236;-59
2022/07/08 02:50:33;;;;;;;4.68;4.20;;;;;;;17.72;100.00;94469.38;5053786;28;20177;-60
2022/07/08 02:52:58;;;;;;;5.10;4.57;;;;;;;17.80;100.00;94471.88;5053706;28;20237;-60
2022/07/08 02:55:24;;;;;;;8.20;4.75;;;;;;;17.99;100.00;94465.38;5053795;28;20182;-62
2022/07/08 02:57:49;;;;;;;5.20;4.35;;;;;;;17.97;100.00;94464.78;5060567;22;20245;-64
2022/07/08 03:00:15;;;;;;;4.70;4.25;;;;;;;17.93;100.00;94471.25;5053798;28;20272;-64
2022/07/08 03:02:40;;;;;;;6.35;5.18;;;;;;;17.93;100.00;94471.25;5035628;28;20217;-64
2022/07/08 03:05:06;;;;;;;5.18;4.25;;;;;;;17.91;100.00;94468.06;5053463;28;20208;-63
2022/07/08 03:07:32;;;;;;;6.22;5.55;;;;;;;17.95;100.00;94474.44;5053894;28;20259;-63
2022/07/08 03:09:57;;;;;;;4.93;4.53;;;;;;;17.83;100.00;94468.97;5053452;28;20190;-62
2022/07/08 03:12:23;;;;;;;5.65;4.47;;;;;;;17.82;100.00;94457.06;5053211;28;20600;-64
2022/07/08 03:14:48;;;;;;;7.45;4.78;;;;;;;17.98;100.00;94462.00;5060607;23;20787;-63
2022/07/08 03:17:13;;;;;;;8.15;5.50;;;;;;;18.03;100.00;94475.16;5073807;28;20212;-63
2022/07/08 03:19:39;;;;;;;5.50;4.72;;;;;;;18.00;100.00;94474.69;5055497;28;20193;-63
2022/07/08 03:22:05;;;;;;;6.47;4.80;;;;;;;17.97;100.00;94468.16;5073050;28;20205;-61
2022/07/08 03:24:30;;;;;;;6.00;4.55;;;;;;;17.96;100.00;94461.41;5073416;28;20669;-60
2022/07/08 03:26:56;;;;;;;5.85;4.38;;;;;;;17.95;100.00;94467.53;5073100;28;20192;-63
2022/07/08 03:29:22;;;;;;;6.43;4.65;;;;;;;18.02;100.00;94465.81;5063990;22;20729;-60
2022/07/08 03:31:47;;;;;;;6.05;4.50;;;;;;;17.98;100.00;94468.94;5054292;28;20202;-62
2022/07/08 03:34:13;;;;;;;4.97;4.47;;;;;;;17.98;100.00;94474.88;5053312;28;20214;-64
2022/07/08 03:36:39;;;;;;;8.25;4.70;;;;;;;18.15;100.00;94476.28;5053057;28;20769;-63
2022/07/08 03:39:04;;;;;;;8.82;4.38;;;;;;;18.16;100.00;94477.09;5052785;28;20192;-65
2022/07/08 03:41:30;;;;;;;5.65;4.68;;;;;;;18.31;100.00;94486.38;5053164;28;20769;-61
2022/07/08 03:43:55;;;;;;;7.45;4.57;;;;;;;18.46;100.00;94493.28;5053219;28;20279;-63
2022/07/08 03:46:21;;;;;;;8.00;5.05;;;;;;;18.47;100.00;94497.44;5052787;28;20217;-63
2022/07/08 03:48:47;;;;;;;6.72;4.70;;;;;;;18.55;100.00;94492.19;5053375;28;20194;-62
2022/07/08 03:51:21;;;;;;;6.35;4.93;;;;;;;18.58;100.00;94495.22;5052648;28;20189;-64
2022/07/08 03:53:46;;;;;;;6.80;4.85;;;;;;;18.62;100.00;94488.72;5052541;28;20267;-62
2022/07/08 03:56:12;;;;;;;8.73;4.93;;;;;;;18.67;100.00;94495.88;5034496;28;20193;-64
2022/07/08 03:58:37;;;;;;;5.75;5.15;;;;;;;18.67;100.00;94501.84;5051966;28;20701;-64
2022/07/08 04:01:03;;;;;;;6.88;5.20;;;;;;;18.66;100.00;94499.44;5052543;28;20315;-63
2022/07/08 04:03:29;;;;;;;5.80;4.80;;;;;;;18.55;100.00;94492.19;5052743;28;20193;-63
2022/07/08 04:05:54;;;;;;;7.85;5.40;;;;;;;18.33;100.00;94481.03;5052686;28;20571;-64
2022/07/08 04:08:20;;;;;;;10.65;5.32;;;;;;;18.10;100.00;94473.44;5052206;28;20200;-61
2022/07/08 04:10:45;;;;;;;6.07;5.47;;;;;;;18.03;100.00;94476.91;5052436;28;20186;-64
2022/07/08 04:13:11;;;;;;;6.05;5.47;;;;;;;18.12;100.00;94481.00;5052338;28;20209;-64
2022/07/08 04:15:36;;;;;;;6.03;5.13;;;;;;;18.26;100.00;94482.75;5052485;28;20192;-65
2022/07/08 04:18:02;;;;;;;8.68;5.25;;;;;;;18.37;100.00;94479.69;5035440;28;20205;-62
2022/07/08 04:20:28;;;;;;;7.97;5.63;;;;;;;18.43;100.00;94477.22;5052363;28;20576;-63
2022/07/08 04:22:54;;;;;;;6.13;5.53;;;;;;;18.68;100.00;94489.75;5052481;28;20230;-63
2022/07/08 04:25:20;;;;;;;6.95;6.05;;;;;;;18.60;100.00;94477.81;5052257;28;20220;-63
2022/07/08 04:27:45;;;;;;;7.35;6.20;;;;;;;18.66;100.00;94497.69;5052240;28;20289;-64
2022/07/08 04:30:11;;;;;;;7.72;5.43;;;;;;;18.60;100.00;94492.47;5051855;28;20200;-62
2022/07/08 04:32:36;;;;;;;6.88;5.82;;;;;;;18.41;100.00;94492.03;5052325;28;20245;-64
2022/07/08 04:35:02;;;;;;;9.52;8.20;;;;;;;18.27;100.00;94468.91;5051795;28;20686;-63
2022/07/08 04:37:28;;;;;;;11.70;10.60;;;;;;;18.87;100.00;94477.06;5033946;28;20216;-63
2022/07/08 04:39:54;;;;;;;6.93;6.22;;;;;;;19.29;100.00;94489.09;5051787;28;20196;-60
2022/07/08 04:42:20;;;;;;;8.90;6.57;;;;;;;19.83;100.00;94479.81;5051616;28;20220;-62
2022/07/08 04:44:45;;;;;;;7.18;5.63;;;;;;;20.19;100.00;94530.41;5051397;28;20182;-62
2022/07/08 04:47:11;;;;;;;9.43;5.53;;;;;;;20.21;100.00;94533.63;5033752;28;20212;-62
2022/07/08 04:49:36;;;;;;;12.20;5.85;;;;;;;20.27;100.00;94484.59;5051733;28;20181;-60
2022/07/08 04:52:06;;;;;;;7.60;6.25;;;;;;;20.62;100.00;94491.28;5051773;28;20217;-61
2022/07/08 04:54:33;;;;;;;8.10;6.63;;;;;;;20.77;100.00;94558.28;5051668;28;20672;-65
2022/07/08 04:56:58;;;;;;;8.73;6.22;;;;;;;20.69;100.00;94548.13;5051462;28;20233;-66
2022/07/08 04:59:24;;;;;;;8.43;5.90;;;;;;;20.65;98.59;94562.44;5033713;28;20181;-65
2022/07/08 05:01:49;;;;;;;10.20;6.47;;;;;;;20.46;99.45;94545.84;5051746;28;20262;-61
2022/07/08 05:06:59;;;;;;;8.65;6.90;;;;;;;20.10;100.00;94509.91;5058844;22;20270;-62
2022/07/08 05:09:24;;;;;;;10.55;7.45;;;;;;;20.02;100.00;94499.75;5052840;28;20185;-62
2022/07/08 05:11:50;;;;;;;11.70;8.00;;;;;;;20.04;100.00;94510.69;5056060;28;20683;-60
2022/07/08 05:14:16;;;;;;;27.52;13.82;;;;;;;20.34;100.00;94476.88;5055539;28;20185;-60
2022/07/08 05:16:42;;;;;;;9.55;8.55;;;;;;;20.57;100.00;94478.16;5056150;28;20213;-61
2022/07/08 05:19:08;;;;;;;12.07;9.13;;;;;;;20.79;99.73;94566.66;5055415;28;20213;-65
2022/07/08 05:21:36;;;;;;;10.02;8.48;;;;;;;20.56;99.21;94535.19;5055482;28;20699;-69
2022/07/08 05:24:03;;;;;;;13.63;7.97;;;;;;;20.21;100.00;94497.47;5055276;28;20177;-68
2022/07/08 05:26:29;;;;;;;9.45;7.40;;;;;;;20.21;100.00;94513.78;5069173;22;20228;-69
2022/07/08 05:28:54;;;;;;;10.23;7.93;;;;;;;20.03;100.00;94511.69;5085254;22;20222;-67
2022/07/08 05:31:19;;;;;;;10.38;7.55;;;;;;;19.87;100.00;94499.09;5055000;28;20304;-66
2022/07/08 05:33:45;;;;;;;8.02;6.75;;;;;;;19.58;100.00;94475.28;5055147;28;20269;-67
2022/07/08 05:36:10;;;;;;;10.13;7.75;;;;;;;19.55;100.00;94488.56;5061292;22;20225;-62
2022/07/08 05:38:36;;;;;;;8.48;7.68;;;;;;;19.71;100.00;94483.91;5054676;28;20272;-63
2022/07/08 05:41:02;;;;;;;10.65;8.90;;;;;;;19.73;100.00;94492.25;5055057;28;20272;-64
2022/07/08 05:43:27;;;;;;;12.10;8.65;;;;;;;19.53;100.00;94457.81;5062265;22;20700;-63
2022/07/08 05:45:52;;;;;;;16.40;8.65;;;;;;;19.93;100.00;94507.84;5061791;22;20299;-62
2022/07/08 05:48:18;;;;;;;12.90;9.30;;;;;;;19.93;100.00;94500.91;5054861;28;20687;-60
2022/07/08 05:50:43;;;;;;;10.55;8.95;;;;;;;19.80;100.00;94482.75;5054627;28;20192;-64
2022/07/08 05:53:09;;;;;;;8.88;7.38;;;;;;;19.57;100.00;94464.19;5054827;28;20190;-68
2022/07/08 05:55:34;;;;;;;14.02;9.50;;;;;;;19.38;100.00;94469.97;5055037;28;20280;-62
2022/07/08 05:58:00;;;;;;;11.52;8.70;;;;;;;19.78;100.00;94477.00;5054708;28;20303;-62
2022/07/08 06:00:26;;;;;;;10.75;7.63;;;;;;;19.60;100.00;94463.78;5061706;22;20240;-68
2022/07/08 06:02:57;;;;;;;10.35;8.38;;;;;;;19.43;100.00;94477.97;5054434;28;20282;-68
2022/07/08 06:05:23;;;;;;;10.68;7.80;;;;;;;19.52;100.00;94479.41;5054377;28;20240;-67
2022/07/08 06:07:48;;;;;;;11.18;8.63;;;;;;;19.81;100.00;94481.78;5054620;28;20292;-63
2022/07/08 06:10:13;;;;;;;13.68;9.68;;;;;;;19.68;100.00;94476.53;5054357;28;20220;-63
2022/07/08 06:12:39;;;;;;;9.50;7.70;;;;;;;19.74;100.00;94475.78;5054482;28;20229;-62
2022/07/08 06:15:05;;;;;;;18.15;11.48;;;;;;;19.69;100.00;94482.50;5054459;28;20200;-66
2022/07/08 06:17:31;;;;;;;15.30;12.15;;;;;;;19.64;100.00;94480.47;5054132;28;20209;-66
2022/07/08 06:19:56;;;;;;;12.45;11.15;;;;;;;19.59;100.00;94475.09;5054039;28;20204;-66
2022/07/08 06:22:22;;;;;;;14.20;10.13;;;;;;;19.56;100.00;94467.72;5054319;28;20202;-67
2022/07/08 06:24:47;;;;;;;15.50;11.15;;;;;;;19.52;100.00;94463.94;5054983;28;20277;-68
2022/07/08 06:27:13;;;;;;;14.10;11.15;;;;;;;19.63;100.00;94466.00;5054501;28;20210;-67
2022/07/08 06:29:38;;;;;;;13.98;11.00;;;;;;;19.65;100.00;94471.78;5054093;28;20228;-66
2022/07/08 06:32:04;;;;;;;18.73;10.65;;;;;;;19.73;100.00;94463.88;5054403;28;20755;-62
2022/07/08 06:34:29;;;;;;;14.93;10.23;;;;;;;19.83;100.00;94460.94;5053848;28;20224;-61
2022/07/08 06:36:55;;;;;;;12.05;10.80;;;;;;;19.86;100.00;94456.19;5053972;28;20197;-65
2022/07/08 06:39:20;;;;;;;12.43;10.82;;;;;;;19.84;100.00;94455.59;5054337;28;20181;-66
2022/07/08 06:41:46;;;;;;;14.85;11.20;;;;;;;19.90;100.00;94461.75;5035976;28;20583;-62
2022/07/08 06:44:11;;;;;;;12.60;10.80;;;;;;;20.25;100.00;94488.38;5054131;28;20693;-62
2022/07/08 06:46:37;;;;;;;12.18;10.73;;;;;;;20.50;100.00;94482.47;5053625;28;20216;-68
2022/07/08 06:49:02;;;;;;;11.38;9.48;;;;;;;20.53;100.00;94476.13;5054131;28;20196;-62
2022/07/08 06:51:28;;;;;;;15.68;9.93;;;;;;;20.62;100.00;94469.81;5053658;28;20240;-63
2022/07/08 06:56:38;;;;;;;14.10;9.68;;;;;;;21.21;100.00;94495.78;5053881;28;20634;-63
2022/07/08 06:59:06;;;;;;;11.77;9.57;;;;;;;21.30;100.00;94479.06;5053908;28;20190;-62
2022/07/08 07:01:31;;;;;;;10.52;9.00;;;;;;;21.35;100.00;94477.47;5053421;28;20212;-62
2022/07/08 07:03:57;;;;;;;12.73;8.85;;;;;;;21.49;99.63;94502.34;5053875;28;20636;-65
2022/07/08 07:06:22;;;;;;;9.10;8.15;;;;;;;21.52;95.80;94530.41;5053217;28;20224;-66
2022/07/08 07:08:48;;;;;;;10.13;8.27;;;;;;;21.49;95.04;94519.66;5053409;28;20219;-67
2022/07/08 07:11:13;;;;;;;12.50;8.38;;;;;;;21.43;98.29;94476.50;5053536;28;20698;-62
2022/07/08 07:13:39;;;;;;;10.45;7.75;;;;;;;21.31;100.00;94450.41;5053575;28;20181;-62
2022/07/08 07:16:05;;;;;;;11.88;8.10;;;;;;;21.44;100.00;94452.19;5053294;28;20181;-62
2022/07/08 07:18:30;;;;;;;14.63;7.95;;;;;;;21.37;100.00;94454.78;5053553;28;20209;-62
2022/07/08 07:20:55;;;;;;;12.20;7.55;;;;;;;21.57;98.66;94462.53;5035291;28;20196;-62
2022/07/08 07:23:21;;;;;;;9.32;6.55;;;;;;;21.48;95.28;94499.94;5053305;28;20643;-62
2022/07/08 07:25:46;;;;;;;7.40;6.60;;;;;;;21.38;95.46;94492.59;5052995;28;20292;-63
2022/07/08 07:28:12;;;;;;;13.13;6.80;;;;;;;21.43;95.97;94479.84;5052843;28;20210;-64
2022/07/08 07:30:37;;;;;;;6.47;5.88;;;;;;;21.45;94.74;94495.97;5052851;28;20194;-62
2022/07/08 07:33:02;;;;;;;7.82;5.95;;;;;;;21.72;93.62;94515.66;5051930;28;20209;-63
2022/07/08 07:35:28;;;;;;;7.00;5.63;;;;;;;21.87;92.45;94523.25;5052726;28;20624;-61
2022/07/08 07:37:53;;;;;;;6.65;5.70;;;;;;;21.94;94.00;94502.53;5052540;28;20213;-61
2022/07/08 07:40:19;;;;;;;5.30;4.80;;;;;;;22.00;90.76;94543.16;5052630;28;20213;-62
2022/07/08 07:42:44;;;;;;;6.57;5.97;;;;;;;22.14;88.91;94555.06;5052476;28;20359;-61
2022/07/08 07:45:10;;;;;;;5.07;3.72;;;;;;;22.20;87.50;94580.16;5034358;28;20209;-61
2022/07/08 07:47:35;;;;;;;4.10;3.80;;;;;;;22.13;84.60;94594.91;5052558;28;20254;-60
2022/07/08 07:50:01;;;;;;;4.53;4.13;;;;;;;22.28;83.75;94598.06;5052374;28;20580;-59
2022/07/08 07:52:26;;;;;;;7.40;4.93;;;;;;;22.26;81.91;94608.63;5052255;28;20216;-61
2022/07/08 07:54:52;;;;;;;5.40;3.97;;;;;;;22.34;79.34;94649.06;5052455;28;20190;-61
2022/07/08 07:57:17;;;;;;;5.40;4.90;;;;;;;22.41;82.90;94580.69;5034256;28;20209;-62
2022/07/08 07:59:44;;;;;;;6.90;4.60;;;;;;;22.46;82.89;94567.91;5052148;28;20267;-64
2022/07/08 08:02:09;;;;;;;4.70;3.80;;;;;;;22.44;80.68;94598.41;5052055;28;20208;-66
2022/07/08 08:04:34;;;;;;;5.43;5.00;;;;;;;22.47;82.15;94576.47;5052713;28;20190;-67
2022/07/08 08:07:00;;;;;;;10.68;6.82;;;;;;;22.72;82.90;94567.06;5051776;28;20219;-66
2022/07/08 08:09:26;;;;;;;5.75;4.10;;;;;;;22.83;80.02;94605.28;5052236;28;20251;-65
2022/07/08 08:11:52;;;;;;;6.15;5.18;;;;;;;23.02;80.56;94591.47;5051812;28;20284;-66
2022/07/08 08:14:17;;;;;;;5.93;4.72;;;;;;;23.18;81.87;94569.41;5052263;28;20208;-65
2022/07/08 08:16:43;;;;;;;4.85;3.53;;;;;;;23.08;80.58;94580.25;5051936;28;20216;-60
2022/07/08 08:19:08;;;;;;;3.67;3.38;;;;;;;23.13;78.50;94628.88;5017626;28;20216;-62
2022/07/08 08:21:36;;;;;;;3.63;3.33;;;;;;;23.01;79.86;94594.22;5051850;28;20693;-61
2022/07/08 08:24:01;;;;;;;4.68;3.80;;;;;;;23.11;81.25;94559.06;5052237;28;20640;-61
2022/07/08 08:26:27;;;;;;;4.80;4.32;;;;;;;23.45;78.15;94624.56;5051828;28;20399;-67
2022/07/08 08:28:53;;;;;;;4.90;4.10;;;;;;;23.45;82.36;94533.75;5034169;28;20339;-65
2022/07/08 08:31:19;;;;;;;4.47;4.07;;;;;;;23.29;76.69;94644.78;5033789;28;20210;-65
2022/07/08 08:33:44;;;;;;;5.38;3.92;;;;;;;23.30;75.78;94633.41;5052116;28;20215;-65
2022/07/08 08:36:10;;;;;;;4.10;3.80;;;;;;;23.17;78.08;94584.19;5033689;28;20259;-66
2022/07/08 08:38:36;;;;;;;5.10;4.40;;;;;;;23.45;79.87;94547.53;5051958;28;20201;-61
2022/07/08 08:41:02;;;;;;;6.05;4.40;;;;;;;23.49;79.59;94563.47;5051657;28;20170;-65
2022/07/08 08:43:28;;;;;;;6.80;3.85;;;;;;;23.37;78.21;94588.50;5051710;28;20196;-61
2022/07/08 08:45:54;;;;;;;5.05;3.65;;;;;;;23.33;74.92;94633.00;5051524;28;20260;-64
2022/07/08 08:48:24;;;;;;;5.50;3.30;;;;;;;23.56;73.29;94666.22;5033766;28;20194;-60
2022/07/08 08:50:54;;;;;;;3.35;3.05;;;;;;;23.73;75.44;94599.03;5051824;28;20197;-60
2022/07/08 08:53:27;;;;;;;4.40;3.42;;;;;;;23.80;72.15;94678.47;5051738;28;20284;-61
2022/07/08 08:55:54;;;;;;;5.25;3.40;;;;;;;23.77;73.64;94611.38;5051489;28;20220;-61
2022/07/08 08:58:20;;;;;;;3.50;3.20;;;;;;;23.84;70.20;94684.81;5051662;28;20186;-62
2022/07/08 09:00:45;;;;;;;4.47;4.05;;;;;;;23.83;73.53;94604.53;5051487;28;20567;-65
2022/07/08 09:03:11;;;;;;;4.32;3.72;;;;;;;24.17;76.83;94533.91;5051490;28;20209;-61
2022/07/08 09:05:37;;;;;;;5.65;3.17;;;;;;;24.21;77.31;94535.06;5051610;28;20214;-62
2022/07/08 09:08:02;;;;;;;6.53;3.80;;;;;;;24.45;74.77;94575.00;5051593;28;20212;-62
2022/07/08 09:10:28;;;;;;;6.15;3.38;;;;;;;24.71;69.13;94702.94;5051506;28;20193;-61
2022/07/08 09:13:10;;;;;;;3.65;3.28;;;;;;;24.71;70.12;94669.13;5033479;28;20247;-61
2022/07/08 09:15:46;;;;;;;3.17;2.97;;;;;;;24.68;67.04;94713.78;5051462;28;20220;-60
2022/07/08 09:18:13;;;;;;;3.95;3.28;;;;;;;24.90;65.39;94732.38;5051521;28;20205;-61
2022/07/08 09:20:44;;;;;;;3.45;3.15;;;;;;;24.95;65.26;94689.09;5051340;28;20678;-61
2022/07/08 09:23:14;;;;;;;5.50;3.22;;;;;;;24.88;61.91;94737.81;5051419;28;20288;-60
2022/07/08 09:25:40;;;;;;;3.47;3.22;;;;;;;24.94;63.33;94679.72;5051059;28;20209;-62
2022/07/08 09:28:06;;;;;;;6.57;3.25;;;;;;;25.12;65.49;94626.06;5033193;28;20259;-60
2022/07/08 09:30:31;;;;;;;5.22;3.03;;;;;;;24.98;64.98;94644.44;5051554;28;20606;-65
2022/07/08 09:32:58;;;;;;;4.50;3.05;;;;;;;24.99;64.08;94659.03;5033157;28;20275;-62
2022/07/08 09:35:38;;;;;;;4.95;3.15;;;;;;;25.37;62.43;94699.63;5051235;28;20182;-62
2022/07/08 09:38:07;;;;;;;3.35;2.67;;;;;;;25.32;64.80;94626.59;5051203;28;20217;-66
2022/07/08 09:40:34;;;;;;;5.32;2.70;;;;;;;25.46;60.31;94724.38;5051169;28;20265;-67
2022/07/08 09:43:01;;;;;;;3.60;3.17;;;;;;;25.52;62.41;94658.41;5033249;28;20236;-61
2022/07/08 09:45:29;;;;;;;3.45;3.15;;;;;;;25.69;58.28;94758.34;5032945;28;20217;-61
2022/07/08 09:48:23;;;;;;;4.25;3.08;;;;;;;25.45;59.48;94696.75;5050776;28;20293;-62
2022/07/08 09:50:49;;;;;;;3.08;2.88;;;;;;;25.76;63.21;94590.53;5048082;28;20284;-60
2022/07/08 09:53:32;;;;;;;4.85;3.65;;;;;;;26.01;64.59;94574.69;5050749;28;20314;-66
2022/07/08 09:55:58;;;;;;;3.67;3.38;;;;;;;26.38;64.72;94580.50;5053133;28;20202;-60
2022/07/08 09:58:28;;;;;;;3.88;3.47;;;;;;;26.43;60.55;94677.88;5036811;28;20201;-60
2022/07/08 10:00:56;;;;;;;2.78;2.58;;;;;;;26.49;59.01;94710.88;5054803;28;20224;-65
2022/07/08 10:03:23;;;;;;;2.80;2.60;;;;;;;26.28;56.96;94745.31;5054772;28;20217;-62
2022/07/08 10:05:49;;;;;;;4.28;2.95;;;;;;;26.47;57.49;94706.91;5054305;28;20584;-62
2022/07/08 10:08:17;;;;;;;3.17;2.85;;;;;;;26.31;56.54;94721.41;5054569;28;20209;-62
2022/07/08 10:10:45;;;;;;;2.97;2.65;;;;;;;26.57;55.53;94726.19;5054549;28;20194;-62
2022/07/08 10:13:11;;;;;;;2.80;2.60;;;;;;;26.63;55.96;94719.25;5036358;28;20242;-61
2022/07/08 10:15:38;;;;;;;3.53;2.67;;;;;;;26.46;51.40;94807.81;5054320;28;20289;-62
2022/07/08 10:18:04;;;;;;;2.80;2.60;;;;;;;26.30;53.06;94747.72;5054277;28;20303;-65
2022/07/08 10:20:31;;;;;;;2.72;2.47;;;;;;;26.33;54.74;94688.06;5036353;28;20224;-64
2022/07/08 10:23:01;;;;;;;2.95;2.50;;;;;;;26.06;58.90;94577.41;5036220;28;20228;-66
2022/07/08 10:25:29;;;;;;;3.92;3.05;;;;;;;26.25;57.68;94606.78;5054327;28;20209;-66
2022/07/08 10:28:04;;;;;;;4.25;3.17;;;;;;;26.65;57.00;94628.53;5054200;28;20209;-64
2022/07/08 10:30:48;;;;;;;2.78;2.58;;;;;;;26.57;57.83;94579.31;5036443;28;20200;-63
2022/07/08 10:33:26;;;;;;;6.47;2.90;;;;;;;26.45;59.16;94560.28;5054042;28;20627;-64
2022/07/08 10:36:04;;;;;;;3.13;2.40;;;;;;;26.33;59.96;94546.47;5036062;28;20217;-61
2022/07/08 10:38:48;;;;;;;4.00;2.92;;;;;;;26.76;59.52;94551.31;5054044;28;20254;-61
2022/07/08 10:41:23;;;;;;;2.80;2.60;;;;;;;27.10;55.94;94653.00;5053859;28;20217;-60
2022/07/08 10:43:51;;;;;;;2.80;2.40;;;;;;;26.66;55.56;94650.19;5054230;28;20203;-60
2022/07/08 10:46:17;;;;;;;2.75;2.55;;;;;;;26.84;57.13;94613.56;5053585;28;20279;-60
2022/07/08 10:48:50;;;;;;;2.42;2.28;;;;;;;26.86;56.21;94645.44;5053855;28;20384;-60
2022/07/08 10:51:18;;;;;;;4.05;2.25;;;;;;;27.20;55.31;94671.47;5035699;28;20274;-66
2022/07/08 10:53:55;;;;;;;3.15;2.60;;;;;;;27.64;54.39;94687.44;5054095;28;20572;-63
2022/07/08 10:56:49;;;;;;;4.50;2.53;;;;;;;27.59;54.41;94682.94;5053982;28;20314;-64
2022/07/08 10:59:18;;;;;;;2.50;2.28;;;;;;;27.42;52.57;94722.06;5053801;28;20560;-61
2022/07/08 11:01:58;;;;;;;2.55;2.35;;;;;;;27.61;53.45;94699.19;5053445;28;20691;-61
2022/07/08 11:04:28;;;;;;;2.70;2.50;;;;;;;27.23;55.76;94620.59;5053542;28;20260;-62
2022/07/08 11:06:56;;;;;;;3.22;2.90;;;;;;;27.38;55.10;94626.13;5034198;28;20236;-60
2022/07/08 11:09:23;;;;;;;3.05;2.63;;;;;;;27.47;57.28;94562.03;5053822;28;20194;-64
2022/07/08 11:11:49;;;;;;;2.67;2.47;;;;;;;27.77;55.02;94637.53;5035476;28;20588;-61
2022/07/08 11:14:15;;;;;;;2.63;2.42;;;;;;;28.36;54.38;94649.22;5035516;28;20182;-60
2022/07/08 11:16:41;;;;;;;3.92;3.05;;;;;;;28.47;53.15;94677.91;5053183;28;20293;-63
2022/07/08 11:19:07;;;;;;;2.47;2.17;;;;;;;28.21;52.55;94678.53;5053154;28;20193;-64
2022/07/08 11:21:34;;;;;;;3.35;3.05;;;;;;;27.91;54.24;94626.53;5053311;28;20206;-63
2022/07/08 11:23:59;;;;;;;3.60;2.30;;;;;;;27.76;56.31;94567.97;5053094;28;20240;-61
2022/07/08 11:26:25;;;;;;;2.88;2.30;;;;;;;27.53;53.61;94643.91;5052820;28;20641;-60
2022/07/08 11:28:50;;;;;;;2.55;2.33;;;;;;;27.60;52.71;94663.63;5053241;28;20194;-65
2022/07/08 11:31:23;;;;;;;4.38;2.70;;;;;;;27.58;54.72;94592.53;5053003;28;20206;-59
2022/07/08 11:33:49;;;;;;;3.88;2.55;;;;;;;27.96;54.71;94590.03;5053359;28;20651;-61